Time;durP1;ratioP1;P1;durP2;ratioP2;P2;SDS_P1;SDS_P2;PMS_P1;PMS_P2;Temp;Humidity;BMP_temperature;BMP_pressure;BME280_temperature;BME280_humidity;BME280_pressure;Samples;Min_cycle;Max_cycle;Signal;HPM_P1;HPM_P2
2022/08/22 00:01:42;;;;;;;;;4.40;4.40;;;;;22.61;49.80;100813.53;5116984;27;46091;-52
2022/08/22 00:04:16;;;;;;;;;4.00;4.00;;;;;22.76;50.18;100842.50;5116829;27;45439;-55
2022/08/22 00:06:41;;;;;;;;;4.20;4.00;;;;;22.75;49.92;100849.25;5115761;27;45335;-53
2022/08/22 00:09:19;;;;;;;;;6.25;5.00;;;;;22.67;50.14;100830.28;5117221;27;45608;-52
2022/08/22 00:12:03;;;;;;;;;8.40;4.40;;;;;22.63;50.19;100841.22;5115678;27;46019;-51
2022/08/22 00:14:40;;;;;;;;;4.60;3.80;;;;;22.68;49.68;100840.34;5117217;27;45387;-51
2022/08/22 00:17:18;;;;;;;;;4.20;4.20;;;;;22.51;50.00;100802.44;5115529;27;45391;-54
2022/08/22 00:19:48;;;;;;;;;5.00;3.00;;;;;22.40;49.71;100786.84;5116243;27;45435;-51
2022/08/22 00:22:20;;;;;;;;;3.40;3.40;;;;;22.65;49.85;100826.94;5098202;27;45734;-52
2022/08/22 00:24:54;;;;;;;;;3.20;3.20;;;;;22.68;49.99;100816.00;5116581;27;45371;-54
2022/08/22 00:27:28;;;;;;;;;6.00;4.40;;;;;22.62;49.75;100797.56;5115429;27;45367;-52
2022/08/22 00:29:56;;;;;;;;;5.60;4.20;;;;;22.38;49.35;100766.72;5115557;27;45405;-53
2022/08/22 00:32:32;;;;;;;;;5.00;3.80;;;;;22.60;49.98;100808.22;5114945;27;45710;-53
2022/08/22 00:35:02;;;;;;;;;3.80;3.80;;;;;22.62;49.60;100805.97;5096936;27;45371;-52
2022/08/22 00:37:49;;;;;;;;;3.80;3.40;;;;;22.60;49.98;100803.50;5094629;27;45345;-53
2022/08/22 00:40:45;;;;;;;;;6.80;4.00;;;;;22.59;50.07;100803.78;5096038;27;45380;-54
2022/08/22 00:43:29;;;;;;;;;3.00;3.00;;;;;22.52;49.56;100801.28;5094576;27;45596;-53
2022/08/22 00:46:16;;;;;;;;;3.80;3.80;;;;;22.51;49.91;100824.78;5099518;27;45455;-56
2022/08/22 00:49:09;;;;;;;;;2.80;2.80;;;;;22.41;49.86;100822.06;5099795;27;45419;-57
2022/08/22 00:51:40;;;;;;;;;3.80;3.80;;;;;22.23;50.07;100795.59;5099406;27;45539;-55
2022/08/22 00:54:41;;;;;;;;;3.20;3.20;;;;;22.34;50.02;100823.22;5098106;27;45730;-52
2022/08/22 00:57:18;;;;;;;;;3.60;3.00;;;;;22.26;49.85;100801.47;5098208;27;45473;-52
2022/08/22 01:00:06;;;;;;;;;4.60;4.60;;;;;22.42;49.90;100823.72;5099558;27;45393;-54
2022/08/22 01:02:39;;;;;;;;;2.20;2.20;;;;;22.26;50.01;100786.66;5082283;27;45323;-50
2022/08/22 01:05:22;;;;;;;;;4.60;3.40;;;;;22.20;49.92;100788.66;5099509;27;46784;-51
2022/08/22 01:07:59;;;;;;;;;4.00;2.20;;;;;22.32;50.10;100822.66;5098587;27;45406;-55
2022/08/22 01:10:30;;;;;;;;;3.60;3.60;;;;;22.34;49.85;100827.97;5098293;27;45693;-54
2022/08/22 01:13:01;;;;;;;;;4.80;4.80;;;;;22.20;49.67;100805.44;5099235;27;45281;-52
2022/08/22 01:15:28;;;;;;;;;3.40;3.40;;;;;22.29;49.42;100823.25;5099265;27;45400;-50
2022/08/22 01:18:11;;;;;;;;;5.00;4.00;;;;;22.30;49.28;100826.88;5097379;27;45285;-54
2022/08/22 01:21:14;;;;;;;;;3.40;2.00;;;;;22.11;49.12;100809.94;5097561;27;45261;-51
2022/08/22 01:24:09;;;;;;;;;5.80;3.80;;;;;21.91;49.09;100767.88;5097817;27;45378;-56
2022/08/22 01:27:12;;;;;;;;;2.60;2.60;;;;;22.26;48.77;100832.22;5097923;27;46468;-53
2022/08/22 01:30:23;;;;;;;;;2.60;2.00;;;;;22.24;48.75;100816.88;5098725;27;45419;-53
2022/08/22 01:33:14;;;;;;;;;3.00;3.00;;;;;22.19;48.51;100807.38;5083128;27;45342;-52
2022/08/22 01:36:13;;;;;;;;;4.00;3.40;;;;;22.27;48.18;100807.88;5099089;27;45350;-52
2022/08/22 01:39:08;;;;;;;;;2.00;2.00;;;;;22.26;48.48;100804.28;5094878;27;46590;-53
2022/08/22 01:41:40;;;;;;;;;5.20;3.00;;;;;22.31;48.10;100804.22;5098173;27;45253;-55
2022/08/22 01:44:31;;;;;;;;;3.00;3.00;;;;;22.11;48.10;100779.19;5061827;27;45808;-56
2022/08/22 01:47:11;;;;;;;;;2.20;2.20;;;;;22.25;48.04;100810.97;5097272;27;45603;-56
2022/08/22 01:49:43;;;;;;;;;2.60;2.60;;;;;21.93;48.29;100750.81;5098754;27;46049;-54
2022/08/22 01:52:10;;;;;;;;;3.40;2.00;;;;;22.19;48.29;100795.34;5096904;27;45266;-55
2022/08/22 01:54:54;;;;;;;;;3.00;3.00;;;;;22.06;48.33;100792.09;5098361;27;45406;-54
2022/08/22 01:57:21;;;;;;;;;3.60;3.60;;;;;22.07;48.06;100785.38;5097583;27;45393;-53
2022/08/22 01:59:49;;;;;;;;;2.20;2.20;;;;;22.06;48.25;100797.69;5096946;27;46123;-51
2022/08/22 02:02:40;;;;;;;;;5.40;2.00;;;;;22.02;48.33;100801.31;5097037;27;45275;-51
2022/08/22 02:05:08;;;;;;;;;4.40;3.20;;;;;21.82;48.57;100769.59;5097094;27;45684;-54
2022/08/22 02:07:51;;;;;;;;;2.80;2.40;;;;;22.00;48.37;100811.97;5097269;27;45353;-54
2022/08/22 02:10:35;;;;;;;;;3.00;3.00;;;;;21.92;48.26;100807.81;5098276;27;45747;-55
2022/08/22 02:13:02;;;;;;;;;3.20;2.00;;;;;21.88;48.45;100815.09;5097898;27;45314;-55
2022/08/22 02:15:40;;;;;;;;;3.80;3.60;;;;;21.82;48.29;100811.47;5098191;27;45180;-54
2022/08/22 02:18:05;;;;;;;;;3.60;3.60;;;;;21.82;48.55;100807.88;5098028;27;45373;-49
2022/08/22 02:20:42;;;;;;;;;3.50;2.00;;;;;21.86;48.54;100806.16;5098152;27;45934;-53
2022/08/22 02:23:42;;;;;;;;;4.00;4.00;;;;;21.67;48.42;100762.94;5096013;27;45400;-54
2022/08/22 02:26:19;;;;;;;;;2.60;2.00;;;;;21.91;47.97;100806.13;5096599;27;45243;-52
2022/08/22 02:29:00;;;;;;;;;4.20;3.00;;;;;21.89;48.11;100808.38;5096916;27;45931;-51
2022/08/22 02:31:42;;;;;;;;;2.20;1.20;;;;;21.72;48.00;100781.66;5097058;27;46492;-51
2022/08/22 02:34:27;;;;;;;;;3.60;3.60;;;;;21.85;48.47;100784.94;5085326;27;45535;-53
2022/08/22 02:36:57;;;;;;;;;1.20;1.20;;;;;21.74;48.30;100779.41;5101019;27;45336;-53
2022/08/22 02:39:46;;;;;;;;;2.00;2.00;;;;;21.84;48.21;100805.63;5117072;27;45298;-55
2022/08/22 02:42:30;;;;;;;;;4.20;2.60;;;;;21.77;48.34;100806.75;5117875;27;46480;-54
2022/08/22 02:45:01;;;;;;;;;3.00;3.00;;;;;21.81;48.41;100809.81;5118261;27;45481;-49
2022/08/22 02:47:50;;;;;;;;;2.80;2.80;;;;;21.78;48.53;100807.59;5117688;27;45434;-52
2022/08/22 02:50:28;;;;;;;;;3.80;2.00;;;;;21.79;48.35;100806.47;5116940;27;45391;-51
2022/08/22 02:53:03;;;;;;;;;2.80;2.00;;;;;21.63;48.52;100770.22;5117749;27;46597;-55
2022/08/22 02:56:00;;;;;;;;;5.20;2.20;;;;;21.74;48.73;100793.38;5117084;27;45251;-54
2022/08/22 02:58:47;;;;;;;;;2.60;2.60;;;;;21.72;48.88;100800.38;5116213;27;45387;-53
2022/08/22 03:01:32;;;;;;;;;2.60;2.00;;;;;21.41;49.21;100784.56;5116766;27;45469;-52
2022/08/22 03:04:20;;;;;;;;;4.40;2.80;;;;;21.40;49.70;100800.44;5117490;27;45486;-53
2022/08/22 03:07:16;;;;;;;;;2.60;1.60;;;;;21.47;49.52;100805.75;5115501;27;45327;-50
2022/08/22 03:09:50;;;;;;;;;6.40;4.60;;;;;21.51;49.32;100800.44;5117792;27;45377;-53
2022/08/22 03:12:38;;;;;;;;;2.80;2.40;;;;;21.28;49.61;100752.47;5117827;27;45688;-50
2022/08/22 03:15:14;;;;;;;;;1.80;1.60;;;;;21.46;49.37;100795.69;5116957;27;46022;-57
2022/08/22 03:18:04;;;;;;;;;2.00;2.00;;;;;21.48;50.01;100801.84;5099229;27;45500;-52
2022/08/22 03:21:16;;;;;;;;;4.80;3.20;;;;;21.49;49.83;100797.06;5117144;27;45280;-54
2022/08/22 03:23:49;;;;;;;;;4.00;3.40;;;;;21.52;49.46;100802.91;5033246;28;45550;-53
2022/08/22 03:26:28;;;;;;;;;3.00;3.00;;;;;21.37;49.84;100784.28;5107547;27;45638;-54
2022/08/22 03:29:03;;;;;;;;;3.40;3.00;;;;;21.38;50.01;100780.38;5099353;27;45869;-51
2022/08/22 03:31:29;;;;;;;;;2.20;2.00;;;;;21.52;50.11;100800.13;5115646;27;45455;-53
2022/08/22 03:34:13;;;;;;;;;5.80;4.20;;;;;21.46;50.40;100797.66;5116195;27;45602;-49
2022/08/22 03:36:39;;;;;;;;;1.80;1.80;;;;;21.46;50.46;100790.09;5117226;27;46411;-52
2022/08/22 03:39:16;;;;;;;;;3.60;2.20;;;;;21.45;50.53;100794.00;5117001;27;45375;-51
2022/08/22 03:41:45;;;;;;;;;3.00;3.00;;;;;21.46;50.59;100795.69;5117144;27;45416;-51
2022/08/22 03:44:37;;;;;;;;;2.80;2.80;;;;;21.45;50.68;100796.81;5117345;27;45182;-53
2022/08/22 03:47:28;;;;;;;;;4.80;4.00;;;;;21.43;50.88;100793.47;5115988;27;46167;-53
2022/08/22 03:50:25;;;;;;;;;3.60;2.60;;;;;21.42;51.10;100793.75;5116922;27;45190;-50
2022/08/22 03:53:08;;;;;;;;;2.80;2.80;;;;;21.16;50.89;100763.97;5098454;27;45416;-54
2022/08/22 03:55:49;;;;;;;;;6.60;3.80;;;;;21.35;51.04;100786.50;5116091;27;45802;-52
2022/08/22 03:58:33;;;;;;;;;3.80;3.60;;;;;21.35;51.04;100782.88;5116974;27;47047;-50
2022/08/22 04:01:07;;;;;;;;;3.40;3.40;;;;;21.32;51.37;100775.06;5116805;27;45380;-50
2022/08/22 04:03:56;;;;;;;;;3.20;3.20;;;;;21.29;51.21;100781.22;5116871;27;45423;-50
2022/08/22 04:06:54;;;;;;;;;3.60;3.60;;;;;21.23;51.53;100772.03;5115937;27;45233;-49
2022/08/22 04:10:00;;;;;;;;;4.00;3.60;;;;;21.26;51.51;100772.31;5116565;27;46584;-53
2022/08/22 04:12:47;;;;;;;;;3.00;3.00;;;;;21.25;51.52;100764.22;5115765;27;45431;-51
2022/08/22 04:15:34;;;;;;;;;3.80;3.00;;;;;21.27;51.61;100761.97;5116979;27;45358;-52
2022/08/22 04:18:05;;;;;;;;;4.80;2.60;;;;;21.10;51.64;100742.78;5116893;27;45348;-55
2022/08/22 04:20:55;;;;;;;;;3.60;3.60;;;;;21.17;51.89;100776.78;5120279;27;46697;-54
2022/08/22 04:23:36;;;;;;;;;2.20;2.20;;;;;21.09;51.92;100777.38;5120118;27;45333;-51
2022/08/22 04:26:04;;;;;;;;;4.00;4.00;;;;;20.99;52.29;100778.22;5120403;27;45412;-51
2022/08/22 04:28:41;;;;;;;;;3.40;3.40;;;;;21.05;52.08;100782.69;5136525;27;45396;-53
2022/08/22 04:31:07;;;;;;;;;5.40;4.20;;;;;21.13;52.14;100772.88;5118051;27;45375;-52
2022/08/22 04:33:47;;;;;;;;;3.00;3.00;;;;;20.99;51.99;100745.56;5119319;27;45212;-53
2022/08/22 04:36:25;;;;;;;;;5.40;4.40;;;;;21.11;51.69;100775.13;5098341;27;45305;-52
2022/08/22 04:38:58;;;;;;;;;4.20;4.20;;;;;20.94;52.14;100775.44;5098570;27;45355;-51
2022/08/22 04:41:30;;;;;;;;;3.00;3.00;;;;;20.65;52.25;100737.78;5098026;27;45463;-52
2022/08/22 04:44:01;;;;;;;;;2.40;2.40;;;;;20.83;52.54;100769.88;5097818;27;45518;-52
2022/08/22 04:46:40;;;;;;;;;3.80;3.00;;;;;20.72;52.67;100769.00;5098115;27;45419;-53
2022/08/22 04:49:21;;;;;;;;;5.60;5.60;;;;;20.72;52.52;100768.19;5082094;27;45398;-53
2022/08/22 04:51:57;;;;;;;;;4.00;2.60;;;;;20.78;52.22;100764.28;5097787;27;46325;-53
2022/08/22 04:54:50;;;;;;;;;4.20;4.20;;;;;20.82;52.63;100787.69;5097674;27;45376;-56
2022/08/22 04:58:03;;;;;;;;;3.80;2.80;;;;;20.91;52.12;100793.56;5098943;27;45260;-52
2022/08/22 05:01:07;;;;;;;;;3.20;3.00;;;;;20.92;52.07;100803.63;5093369;27;45356;-51
2022/08/22 05:03:35;;;;;;;;;3.40;3.00;;;;;20.90;52.05;100786.34;5074866;27;45425;-54
2022/08/22 05:06:01;;;;;;;;;5.00;4.00;;;;;20.79;51.93;100756.75;5063888;27;45443;-55
2022/08/22 05:08:29;;;;;;;;;3.00;3.00;;;;;20.96;51.97;100793.56;5097409;27;45424;-51
2022/08/22 05:10:55;;;;;;;;;6.80;2.20;;;;;20.91;51.86;100795.56;5098039;27;45427;-50
2022/08/22 05:13:24;;;;;;;;;4.75;3.50;;;;;20.98;51.96;100815.63;5080431;27;45457;-56
2022/08/22 05:15:53;;;;;;;;;3.00;3.00;;;;;20.94;52.03;100815.34;5097572;27;45404;-51
2022/08/22 05:18:22;;;;;;;;;3.40;3.40;;;;;20.86;51.96;100785.22;5080703;27;45437;-54
2022/08/22 05:20:48;;;;;;;;;4.80;3.00;;;;;21.06;51.71;100803.03;5098846;27;45442;-54
2022/08/22 05:23:20;;;;;;;;;4.50;2.75;;;;;21.09;51.96;100789.34;5097027;27;45801;-52
2022/08/22 05:25:47;;;;;;;;;4.60;3.00;;;;;21.20;51.95;100800.50;5080414;27;45464;-52
2022/08/22 05:28:16;;;;;;;;;4.00;4.00;;;;;21.25;51.50;100806.91;5099012;27;45292;-56
2022/08/22 05:30:42;;;;;;;;;5.80;4.60;;;;;21.29;51.59;100809.97;5072552;27;45413;-52
2022/08/22 05:33:18;;;;;;;;;5.20;5.20;;;;;21.28;51.44;100815.84;5084154;27;46148;-56
2022/08/22 05:35:47;;;;;;;;;4.20;3.40;;;;;21.23;51.40;100806.34;5114462;27;45436;-54
2022/08/22 05:38:15;;;;;;;;;3.60;2.40;;;;;21.20;51.81;100806.94;5117590;27;45404;-53
2022/08/22 05:40:41;;;;;;;;;2.40;2.40;;;;;21.20;51.64;100820.91;5099958;27;45290;-52
2022/08/22 05:43:08;;;;;;;;;3.60;3.60;;;;;21.24;51.78;100827.56;5135036;27;46528;-51
2022/08/22 05:45:34;;;;;;;;;3.00;3.00;;;;;21.26;52.02;100830.94;5117603;27;45355;-51
2022/08/22 05:48:32;;;;;;;;;4.50;4.50;;;;;21.29;51.62;100837.88;5135857;27;45445;-52
2022/08/22 05:51:03;;;;;;;;;5.40;2.00;;;;;21.12;51.62;100807.50;5109398;27;45480;-57
2022/08/22 05:53:34;;;;;;;;;5.60;4.00;;;;;21.11;51.69;100809.47;5117595;27;46869;-54
2022/08/22 05:56:11;;;;;;;;;5.60;4.00;;;;;21.28;51.53;100836.22;5117785;27;45403;-55
2022/08/22 05:58:42;;;;;;;;;5.00;5.00;;;;;21.31;51.52;100824.50;5118133;27;45163;-53
2022/08/22 06:01:10;;;;;;;;;3.40;3.40;;;;;21.29;51.77;100840.66;5119771;27;45363;-52
2022/08/22 06:03:38;;;;;;;;;4.40;3.40;;;;;21.21;51.90;100832.88;5118918;27;46483;-53
2022/08/22 06:06:10;;;;;;;;;3.00;3.00;;;;;21.22;51.57;100832.59;5117594;27;45328;-53
2022/08/22 06:08:57;;;;;;;;;5.80;3.20;;;;;21.15;51.56;100814.47;5101071;27;45387;-54
2022/08/22 06:11:29;;;;;;;;;6.40;5.80;;;;;20.94;52.36;100832.09;5117605;27;45430;-56
2022/08/22 06:14:01;;;;;;;;;5.20;4.20;;;;;21.11;52.42;100847.69;5117973;27;45471;-56
2022/08/22 06:16:53;;;;;;;;;3.00;3.00;;;;;20.91;52.56;100841.00;5117687;27;45421;-52
2022/08/22 06:19:18;;;;;;;;;3.20;3.20;;;;;20.85;53.15;100834.59;5109550;27;45401;-53
2022/08/22 06:21:45;;;;;;;;;5.25;4.75;;;;;20.82;52.89;100825.91;5083778;27;45540;-55
2022/08/22 06:24:15;;;;;;;;;3.60;3.00;;;;;20.84;53.05;100830.13;5098852;27;45783;-55
2022/08/22 06:26:44;;;;;;;;;6.40;5.80;;;;;20.82;53.08;100834.28;5079581;27;46257;-53
2022/08/22 06:29:09;;;;;;;;;8.20;3.20;;;;;20.79;53.17;100846.84;5075674;27;45500;-53
2022/08/22 06:31:38;;;;;;;;;4.00;3.00;;;;;20.88;53.16;100836.00;5100526;27;45372;-52
2022/08/22 06:34:12;;;;;;;;;5.60;5.60;;;;;20.85;52.70;100812.28;5073661;27;46574;-52
2022/08/22 06:36:39;;;;;;;;;5.80;4.00;;;;;21.07;52.66;100852.97;5096582;27;45528;-53
2022/08/22 06:39:13;;;;;;;;;4.00;4.00;;;;;21.15;52.49;100854.38;5098715;27;45468;-53
2022/08/22 06:41:49;;;;;;;;;6.80;5.20;;;;;21.18;52.26;100845.44;5090950;27;45434;-54
2022/08/22 06:44:17;;;;;;;;;5.20;3.80;;;;;21.27;52.19;100845.69;5114507;27;45859;-56
2022/08/22 06:46:42;;;;;;;;;6.00;4.60;;;;;21.09;52.61;100839.56;5095955;27;45468;-53
2022/08/22 06:49:08;;;;;;;;;5.25;4.25;;;;;21.24;52.22;100837.91;5112872;27;45864;-55
2022/08/22 06:51:35;;;;;;;;;6.50;5.00;;;;;21.37;52.07;100836.47;5096913;27;45810;-54
2022/08/22 06:54:02;;;;;;;;;2.00;2.00;;;;;21.55;51.77;100842.56;5074951;27;45457;-51
2022/08/22 06:56:34;;;;;;;;;5.00;4.40;;;;;21.62;51.50;100832.75;5075080;27;45413;-51
2022/08/22 06:59:02;;;;;;;;;3.40;3.40;;;;;21.39;51.73;100829.50;5074807;27;45404;-57
2022/08/22 07:01:36;;;;;;;;;3.80;3.80;;;;;21.44;51.71;100839.81;5091837;27;45663;-54
2022/08/22 07:04:08;;;;;;;;;6.40;6.00;;;;;21.41;51.73;100818.03;5090862;27;46023;-52
2022/08/22 07:06:40;;;;;;;;;7.00;3.20;;;;;21.59;51.54;100840.88;5091975;27;45687;-55
2022/08/22 07:09:06;;;;;;;;;6.60;4.20;;;;;21.62;50.98;100843.09;5091237;27;45507;-51
2022/08/22 07:11:35;;;;;;;;;5.25;4.00;;;;;21.67;51.12;100835.53;5091595;27;45816;-52
2022/08/22 07:14:13;;;;;;;;;6.60;4.40;;;;;21.82;50.73;100867.34;5074770;27;47025;-54
2022/08/22 07:16:40;;;;;;;;;5.00;4.80;;;;;21.65;50.88;100840.59;5105814;27;46082;-52
2022/08/22 07:19:05;;;;;;;;;7.80;4.60;;;;;21.90;50.89;100861.19;5097087;27;45840;-51
2022/08/22 07:21:44;;;;;;;;;5.00;3.75;;;;;21.90;50.78;100851.97;5079318;27;45675;-50
2022/08/22 07:24:09;;;;;;;;;6.00;6.00;;;;;22.01;50.58;100870.34;5091033;27;46204;-52
2022/08/22 07:27:08;;;;;;;;;7.50;5.75;;;;;22.03;50.53;100873.69;5118995;27;45689;-55
2022/08/22 07:29:43;;;;;;;;;6.80;5.20;;;;;21.93;50.81;100874.56;5092735;27;45519;-51
2022/08/22 07:32:21;;;;;;;;;4.60;4.60;;;;;21.90;50.68;100875.16;5091056;27;45918;-52
2022/08/22 07:35:07;;;;;;;;;4.60;3.20;;;;;21.99;50.82;100864.19;5075794;27;45550;-52
2022/08/22 07:38:17;;;;;;;;;7.60;5.60;;;;;22.08;50.66;100878.41;5091262;27;45948;-50
2022/08/22 07:41:24;;;;;;;;;4.20;3.60;;;;;22.05;50.52;100870.63;5075316;27;46091;-51
2022/08/22 07:44:15;;;;;;;;;5.00;4.00;;;;;22.11;50.48;100874.22;5086961;27;45868;-51
2022/08/22 07:46:55;;;;;;;;;4.60;3.40;;;;;22.18;50.48;100869.16;5073483;27;46520;-50
2022/08/22 07:49:25;;;;;;;;;5.20;4.00;;;;;22.10;50.29;100839.00;5089548;27;45365;-50
2022/08/22 07:51:53;;;;;;;;;5.40;4.40;;;;;22.21;50.39;100860.19;5088377;27;45891;-52
2022/08/22 07:54:27;;;;;;;;;5.80;5.00;;;;;22.18;50.50;100867.19;5092562;27;45757;-51
2022/08/22 07:57:01;;;;;;;;;5.60;3.60;;;;;22.27;50.67;100877.78;5092267;27;46626;-50
2022/08/22 07:59:27;;;;;;;;;4.80;4.60;;;;;22.31;49.93;100876.91;5090343;27;45532;-48
2022/08/22 08:01:55;;;;;;;;;6.00;4.00;;;;;22.39;49.96;100885.81;5088689;27;45512;-48
2022/08/22 08:04:28;;;;;;;;;4.80;4.00;;;;;22.29;50.27;100878.31;5089728;27;45514;-48
2022/08/22 08:06:55;;;;;;;;;6.00;4.80;;;;;22.24;50.30;100859.63;5088581;27;46769;-47
2022/08/22 08:09:21;;;;;;;;;4.40;4.40;;;;;22.23;50.08;100868.28;5099677;27;45932;-49
2022/08/22 08:11:48;;;;;;;;;5.75;4.50;;;;;22.18;50.49;100847.63;5095195;27;45435;-48
2022/08/22 08:14:13;;;;;;;;;6.20;4.60;;;;;22.32;50.24;100875.78;5091302;27;45501;-50
2022/08/22 08:16:46;;;;;;;;;5.00;2.75;;;;;22.32;49.96;100880.53;5089578;27;45813;-48
2022/08/22 08:19:11;;;;;;;;;8.00;5.00;;;;;22.24;49.91;100865.19;5090776;27;45392;-52
2022/08/22 08:21:55;;;;;;;;;5.00;5.00;;;;;22.50;49.87;100890.22;5074584;27;45415;-48
2022/08/22 08:24:34;;;;;;;;;5.40;4.60;;;;;22.37;49.71;100890.84;5090793;27;45415;-53
2022/08/22 08:29:55;;;;;;;;;11.60;4.60;;;;;22.54;50.20;100873.72;5105083;27;45442;-50
2022/08/22 08:32:24;;;;;;;;;5.00;5.00;;;;;22.63;49.47;100871.16;5091831;27;45502;-50
2022/08/22 08:34:50;;;;;;;;;3.00;3.00;;;;;22.74;49.23;100881.16;5076504;27;45777;-53
2022/08/22 08:37:26;;;;;;;;;4.50;4.50;;;;;22.51;49.18;100838.78;5111077;27;46314;-49
2022/08/22 08:39:58;;;;;;;;;5.20;4.00;;;;;22.84;49.43;100878.25;5085984;27;45429;-53
2022/08/22 08:43:30;;;;;;;;;7.60;6.00;;;;;22.95;49.23;100878.19;5091253;27;45697;-52
2022/08/22 08:46:26;;;;;;;;;3.40;2.80;;;;;23.00;49.04;100876.16;5085788;27;45788;-49
2022/08/22 08:49:45;;;;;;;;;3.60;3.60;;;;;22.98;48.97;100878.44;5091690;27;46844;-53
2022/08/22 08:52:23;;;;;;;;;4.00;4.00;;;;;23.06;49.29;100876.13;5026715;28;46113;-48
2022/08/22 08:55:26;;;;;;;;;3.20;3.20;;;;;23.05;49.00;100868.84;5037827;28;45648;-49
2022/08/22 08:58:15;;;;;;;;;4.40;4.40;;;;;22.74;48.79;100828.81;5098551;27;45740;-51
2022/08/22 09:00:41;;;;;;;;;6.60;5.40;;;;;22.96;48.54;100849.06;5105407;27;45771;-52
2022/08/22 09:03:23;;;;;;;;;5.20;4.20;;;;;22.92;48.65;100837.63;5090366;27;45569;-53
2022/08/22 09:06:07;;;;;;;;;4.00;4.00;;;;;23.08;48.61;100849.50;5109324;27;45463;-53
2022/08/22 09:08:32;;;;;;;;;4.00;4.00;;;;;23.18;48.40;100850.53;5094212;27;45459;-53
2022/08/22 09:11:08;;;;;;;;;6.00;5.00;;;;;23.22;48.07;100851.63;5094015;27;46668;-51
2022/08/22 09:13:40;;;;;;;;;4.60;4.40;;;;;23.28;48.14;100842.84;5094133;27;45696;-49
2022/08/22 09:16:16;;;;;;;;;4.00;2.80;;;;;23.21;48.51;100827.56;5091332;27;45531;-50
2022/08/22 09:18:47;;;;;;;;;3.60;3.60;;;;;23.35;47.86;100847.31;5092849;27;45694;-51
2022/08/22 09:21:35;;;;;;;;;5.00;5.00;;;;;23.44;48.14;100842.75;5080640;27;46649;-50
2022/08/22 09:24:09;;;;;;;;;5.60;4.20;;;;;23.48;48.02;100842.97;5092505;27;45828;-51
2022/08/22 09:26:39;;;;;;;;;3.00;3.00;;;;;23.32;48.12;100803.94;5092600;27;45539;-51
2022/08/22 09:29:14;;;;;;;;;3.60;3.00;;;;;23.61;47.02;100845.06;5092132;27;45407;-51
2022/08/22 09:31:47;;;;;;;;;5.80;4.40;;;;;23.68;47.26;100837.13;5093822;27;46258;-51
2022/08/22 09:34:39;;;;;;;;;3.40;2.00;;;;;23.57;46.46;100803.97;5093767;27;45972;-51
2022/08/22 09:37:19;;;;;;;;;3.60;3.20;;;;;23.80;46.91;100819.88;5114766;27;45522;-53
2022/08/22 09:39:53;;;;;;;;;3.80;3.80;;;;;23.69;46.72;100810.78;5097921;27;45408;-50
2022/08/22 09:42:40;;;;;;;;;6.00;3.00;;;;;23.80;46.93;100838.69;5075522;27;46636;-52
2022/08/22 09:45:06;;;;;;;;;3.60;2.60;;;;;23.80;47.37;100830.28;5094394;27;45319;-49
2022/08/22 09:48:03;;;;;;;;;4.50;3.75;;;;;23.88;47.40;100823.16;5094930;27;45371;-50
2022/08/22 09:50:35;;;;;;;;;3.80;3.80;;;;;23.94;46.98;100814.38;5093953;27;45702;-53
2022/08/22 09:53:30;;;;;;;;;3.80;2.20;;;;;23.88;46.90;100790.38;5070296;27;45871;-50
2022/08/22 09:56:17;;;;;;;;;3.00;2.00;;;;;24.00;46.62;100814.31;5084196;27;45515;-51
2022/08/22 09:59:01;;;;;;;;;3.80;2.00;;;;;24.04;46.64;100807.81;5078336;27;45597;-54
2022/08/22 10:01:40;;;;;;;;;3.00;3.00;;;;;23.87;45.94;100788.72;5102093;27;45544;-54
2022/08/22 10:04:33;;;;;;;;;4.00;4.00;;;;;23.94;45.93;100814.38;5085176;27;47474;-52
2022/08/22 10:07:17;;;;;;;;;5.40;3.00;;;;;24.03;46.11;100825.78;5106461;27;45492;-53
2022/08/22 10:09:47;;;;;;;;;4.60;3.00;;;;;24.08;46.04;100814.50;5106019;27;45810;-52
2022/08/22 10:12:15;;;;;;;;;2.00;2.00;;;;;24.14;46.01;100823.69;5105943;27;45513;-52
2022/08/22 10:15:02;;;;;;;;;2.40;2.40;;;;;24.15;45.76;100821.69;5112112;27;46581;-50
2022/08/22 10:17:35;;;;;;;;;3.20;2.00;;;;;24.09;45.96;100810.56;5102483;27;45795;-51
2022/08/22 10:20:16;;;;;;;;;2.00;2.00;;;;;24.23;45.90;100826.66;5093005;27;45496;-50
2022/08/22 10:23:07;;;;;;;;;2.00;2.00;;;;;24.19;45.67;100809.59;5083906;27;45485;-53
2022/08/22 10:25:46;;;;;;;;;2.40;2.40;;;;;24.22;46.05;100808.97;5109163;27;45922;-52
2022/08/22 10:28:15;;;;;;;;;3.20;3.20;;;;;24.33;46.29;100809.66;5097803;27;45954;-54
2022/08/22 10:30:49;;;;;;;;;4.20;3.60;;;;;24.58;45.91;100823.56;5094631;27;45435;-50
2022/08/22 10:33:34;;;;;;;;;3.60;3.00;;;;;24.74;45.46;100808.16;5093691;27;45733;-49
2022/08/22 10:36:06;;;;;;;;;2.60;2.00;;;;;24.93;44.87;100818.53;5102519;27;46258;-52
2022/08/22 10:38:37;;;;;;;;;6.40;2.80;;;;;25.07;44.54;100810.13;5096149;27;46042;-52
2022/08/22 10:41:21;;;;;;;;;3.00;3.00;;;;;25.20;43.99;100808.50;5091514;27;45487;-50
2022/08/22 10:44:11;;;;;;;;;3.20;2.20;;;;;25.21;44.28;100787.69;5093803;27;45890;-49
2022/08/22 10:46:43;;;;;;;;;3.00;3.00;;;;;25.17;43.63;100783.84;5090491;27;46715;-50
2022/08/22 10:49:21;;;;;;;;;2.60;2.60;;;;;25.26;43.75;100812.88;5093741;27;45803;-50
2022/08/22 10:51:51;;;;;;;;;2.00;2.00;;;;;25.37;44.39;100807.03;5092488;27;45837;-57
2022/08/22 10:54:42;;;;;;;;;3.40;2.20;;;;;25.36;44.51;100820.28;5108853;27;45403;-55
2022/08/22 10:57:41;;;;;;;;;2.60;1.00;;;;;25.38;44.68;100814.31;5078782;27;46724;-52
2022/08/22 11:00:13;;;;;;;;;1.60;1.60;;;;;25.40;44.10;100812.06;5087852;27;45494;-53
2022/08/22 11:02:47;;;;;;;;;3.00;1.80;;;;;25.21;44.77;100787.69;5092987;27;45433;-48
2022/08/22 11:05:31;;;;;;;;;4.00;4.00;;;;;25.18;44.87;100780.72;5093014;27;45485;-55
2022/08/22 11:08:15;;;;;;;;;3.80;2.00;;;;;25.47;44.25;100808.81;5115295;27;45443;-49
2022/08/22 11:10:55;;;;;;;;;2.00;2.00;;;;;25.70;44.19;100806.97;5082371;27;47228;-52
2022/08/22 11:13:32;;;;;;;;;2.60;2.00;;;;;25.61;44.05;100778.75;5092664;27;45380;-50
2022/08/22 11:16:00;;;;;;;;;2.00;2.00;;;;;25.76;44.06;100810.50;5097363;27;45865;-51
2022/08/22 11:18:56;;;;;;;;;3.60;2.00;;;;;25.85;44.33;100814.25;5092667;27;46137;-53
2022/08/22 11:21:34;;;;;;;;;1.60;1.60;;;;;25.97;43.68;100811.72;5081655;27;45663;-54
2022/08/22 11:24:12;;;;;;;;;3.00;3.00;;;;;26.04;43.72;100811.28;5091448;27;45449;-54
2022/08/22 11:26:53;;;;;;;;;3.00;2.00;;;;;26.12;43.38;100790.88;5092976;27;45905;-51
2022/08/22 11:29:25;;;;;;;;;1.80;1.00;;;;;26.27;43.14;100794.50;5090466;27;46562;-52
2022/08/22 11:32:09;;;;;;;;;2.00;2.00;;;;;26.41;43.07;100771.91;5128997;27;45530;-53
2022/08/22 11:34:42;;;;;;;;;5.20;3.00;;;;;26.64;42.93;100800.06;5112274;27;45893;-52
2022/08/22 11:37:18;;;;;;;;;3.60;2.60;;;;;26.78;43.18;100794.34;5074956;27;45732;-52
2022/08/22 11:39:57;;;;;;;;;2.40;2.00;;;;;26.86;42.05;100785.13;5074683;27;46465;-54
2022/08/22 11:42:31;;;;;;;;;2.00;2.00;;;;;26.77;42.54;100775.78;5075489;27;45748;-50
2022/08/22 11:44:58;;;;;;;;;3.20;1.60;;;;;26.68;42.54;100774.94;5073031;27;45922;-54
2022/08/22 11:47:26;;;;;;;;;2.00;2.00;;;;;26.66;42.76;100786.50;5090050;27;45515;-51
2022/08/22 11:49:52;;;;;;;;;2.40;2.40;;;;;26.64;42.62;100780.38;5107932;27;46869;-52
2022/08/22 11:52:41;;;;;;;;;2.25;2.00;;;;;26.78;42.75;100788.72;5092344;27;45688;-54
2022/08/22 11:55:26;;;;;;;;;3.00;3.00;;;;;26.96;42.44;100777.59;5091263;27;45464;-55
2022/08/22 11:57:56;;;;;;;;;2.60;2.00;;;;;27.06;42.27;100783.78;5091680;27;45455;-54
2022/08/22 12:00:25;;;;;;;;;2.00;1.80;;;;;27.02;42.22;100782.78;5082245;27;46569;-53
2022/08/22 12:03:15;;;;;;;;;2.00;2.00;;;;;26.88;42.41;100785.63;5100810;27;45484;-56
2022/08/22 12:05:44;;;;;;;;;2.00;2.00;;;;;26.73;42.75;100786.88;5090867;27;45424;-53
2022/08/22 12:08:14;;;;;;;;;2.00;2.00;;;;;26.58;42.81;100778.84;5105156;27;45526;-54
2022/08/22 12:11:00;;;;;;;;;1.80;1.20;;;;;26.44;43.65;100774.09;5073878;27;47368;-51
2022/08/22 12:13:53;;;;;;;;;3.80;2.00;;;;;26.21;43.63;100757.16;5091175;27;45448;-53
2022/08/22 12:16:48;;;;;;;;;2.40;2.20;;;;;26.31;43.79;100780.63;5091695;27;46180;-51
2022/08/22 12:20:08;;;;;;;;;1.40;1.40;;;;;26.23;43.76;100777.41;5040052;27;45855;-55